createdAt,value
2023-04-11T00:05:37.859Z,4.1
2023-04-11T00:11:30.117Z,4.1
2023-04-11T00:17:22.435Z,4.1
2023-04-11T00:23:14.388Z,4.1
2023-04-11T00:29:06.645Z,4.1
2023-04-11T00:34:57.838Z,4.1
2023-04-11T00:40:49.374Z,4.1
2023-04-11T00:46:41.082Z,4.1
2023-04-11T00:52:33.164Z,4.3
2023-04-11T00:58:23.499Z,4.3
2023-04-11T01:04:18.795Z,4.3
2023-04-11T01:10:10.390Z,4.4
2023-04-11T01:16:02.319Z,4.5
2023-04-11T01:21:39.896Z,4.5
2023-04-11T01:27:15.318Z,4.6
2023-04-11T01:33:07.109Z,4.6
2023-04-11T01:38:43.708Z,4.6
2023-04-11T01:44:20.596Z,4.6
2023-04-11T01:50:11.657Z,4.6
2023-04-11T01:56:03.168Z,4.6
2023-04-11T02:01:39.223Z,4.6
2023-04-11T02:07:32.331Z,4.6
2023-04-11T02:13:24.511Z,4.5
2023-04-11T02:19:16.496Z,4.4
2023-04-11T02:25:08.742Z,4.4
2023-04-11T02:31:00.418Z,4.5
2023-04-11T02:36:52.272Z,4.5
2023-04-11T02:42:42.680Z,4.5
2023-04-11T02:48:47.359Z,4.6
2023-04-11T02:54:38.683Z,4.6
2023-04-11T03:00:29.981Z,4.6
2023-04-11T03:06:07.986Z,4.6
2023-04-11T03:11:59.567Z,4.6
2023-04-11T03:17:51.370Z,4.6
2023-04-11T03:23:43.101Z,4.6
2023-04-11T03:29:34.846Z,4.6
2023-04-11T03:35:26.495Z,4.6
2023-04-11T03:41:02.911Z,4.6
2023-04-11T03:46:54.847Z,4.6
2023-04-11T03:52:49.245Z,4.7
2023-04-11T03:58:44.220Z,4.6
2023-04-11T04:04:22.667Z,4.6
2023-04-11T04:10:15.114Z,4.6
2023-04-11T04:16:06.894Z,4.7
2023-04-11T04:21:58.710Z,4.7
2023-04-11T04:27:50.852Z,4.8
2023-04-11T04:33:47.674Z,4.8
2023-04-11T04:39:39.255Z,4.8
2023-04-11T04:45:31.037Z,4.8
2023-04-11T04:51:08.596Z,4.8
2023-04-11T04:56:45.440Z,4.9
2023-04-11T05:02:37.419Z,5
2023-04-11T05:08:31.886Z,5.1
2023-04-11T05:14:25.662Z,5.3
2023-04-11T05:20:17.728Z,5.6
2023-04-11T05:26:09.579Z,6
2023-04-11T05:32:01.144Z,6.7
2023-04-11T05:37:52.568Z,7.4
2023-04-11T05:43:44.505Z,8.6
2023-04-11T05:49:35.599Z,10.2
2023-04-11T05:55:27.390Z,12.3
2023-04-11T06:01:26.344Z,14.1
2023-04-11T06:07:04.658Z,15.5
2023-04-11T06:12:58.230Z,17.3
2023-04-11T06:18:53.190Z,20
2023-04-11T06:24:43.947Z,24
2023-04-11T06:30:35.328Z,28.6
2023-04-11T06:36:27.852Z,31.6
2023-04-11T06:42:20.221Z,34.1
2023-04-11T06:47:56.607Z,36.8
2023-04-11T06:53:33.391Z,39.2
2023-04-11T06:59:25.445Z,38.6
2023-04-11T07:05:19.570Z,36.8
2023-04-11T07:11:14.876Z,34.1
2023-04-11T07:17:07.202Z,32.7
2023-04-11T07:22:58.784Z,34
2023-04-11T07:28:51.323Z,35.8
2023-04-11T07:34:46.205Z,37.1
2023-04-11T07:40:22.243Z,37.5
2023-04-11T07:46:14.070Z,38.5
2023-04-11T07:52:05.844Z,41.4
2023-04-11T07:57:56.590Z,43.1
2023-04-11T08:03:52.004Z,42.9
2023-04-11T08:09:44.665Z,40.3
2023-04-11T08:15:38.132Z,37.8
2023-04-11T08:21:41.500Z,35.4
2023-04-11T08:27:35.232Z,33.6
2023-04-11T08:33:13.975Z,32.2
2023-04-11T08:39:09.930Z,31.7
2023-04-11T08:45:01.724Z,33.7
2023-04-11T08:50:52.958Z,35.6
2023-04-11T08:56:44.703Z,40.6
2023-04-11T09:02:38.483Z,44.9
2023-04-11T09:08:29.979Z,45.4
2023-04-11T09:14:22.669Z,43
2023-04-11T09:20:22.177Z,44
2023-04-11T09:26:16.800Z,42.7
2023-04-11T09:32:09.050Z,40.4
2023-04-11T09:38:00.654Z,38.3
2023-04-11T09:43:54.372Z,39.2
2023-04-11T09:50:14.889Z,43
2023-04-11T09:56:23.690Z,49.4
2023-04-11T10:02:15.885Z,55.3
2023-04-11T10:08:09.463Z,45.3
2023-04-11T10:14:00.980Z,44.5
2023-04-11T10:19:57.046Z,48
2023-04-11T10:25:34.176Z,52.5
2023-04-11T10:31:25.431Z,50.9
2023-04-11T10:37:02.152Z,43.7
2023-04-11T10:42:39.146Z,45
2023-04-11T10:48:31.603Z,45.1
2023-04-11T10:54:23.085Z,48.2
2023-04-11T11:00:15.050Z,53.9
2023-04-11T11:06:43.174Z,42.3
2023-04-11T11:12:24.554Z,37.3
2023-04-11T11:18:17.200Z,35.6
2023-04-11T11:24:02.677Z,40.9
2023-04-11T11:29:54.111Z,45.6
2023-04-11T11:35:50.480Z,47.8
2023-04-11T11:41:41.885Z,52.7
2023-04-11T11:52:57.486Z,41.5
2023-04-11T11:58:35.949Z,40
2023-04-11T12:04:29.476Z,38.9
2023-04-11T12:10:22.761Z,39.4
2023-04-11T12:15:45.223Z,42.1
2023-04-11T12:21:37.654Z,40.9
2023-04-11T12:27:36.389Z,40.3
2023-04-11T12:33:30.644Z,37.6
2023-04-11T12:39:25.124Z,39.9
2023-04-11T12:46:03.121Z,49
2023-04-11T12:51:24.600Z,57.1
2023-04-11T12:57:15.900Z,46.8
2023-04-11T13:03:17.048Z,40.9
2023-04-11T13:09:10.430Z,39
2023-04-11T13:15:17.431Z,36.7
2023-04-11T13:21:10.072Z,35.1
2023-04-11T13:27:02.543Z,33.1
2023-04-11T13:32:55.403Z,31.4
2023-04-11T13:38:49.238Z,29.9
2023-04-11T13:44:40.777Z,28.6
2023-04-11T13:56:09.755Z,27.6
2023-04-11T14:02:15.873Z,26.9
2023-04-11T14:08:11.032Z,25.9
2023-04-11T14:14:03.104Z,25.2
2023-04-11T14:20:06.490Z,24.7
2023-04-11T14:25:59.916Z,24.6
2023-04-11T14:31:52.896Z,24.4
2023-04-11T14:37:45.320Z,23.9
2023-04-11T14:43:36.766Z,23.4
2023-04-11T14:49:31.694Z,22.8
2023-04-11T14:55:23.281Z,21.9
2023-04-11T15:01:14.872Z,21.3
2023-04-11T15:07:09.314Z,20.9
2023-04-11T15:13:01.051Z,20.8
2023-04-11T15:18:55.585Z,20.4
2023-04-11T15:24:47.266Z,20
2023-04-11T15:30:39.130Z,19.6
2023-04-11T15:36:34.082Z,19.1
2023-04-11T15:42:10.431Z,18.6
2023-04-11T15:48:02.975Z,18.3
2023-04-11T15:53:55.024Z,17.8
2023-04-11T15:59:47.326Z,17.4
2023-04-11T16:11:21.731Z,16.6
2023-04-11T16:16:58.618Z,16.1
2023-04-11T16:22:51.009Z,15.5
2023-04-11T16:28:43.056Z,14.9
2023-04-11T16:34:37.620Z,14.4
2023-04-11T16:40:31.919Z,14.1
2023-04-11T16:45:39.356Z,13.7
2023-04-11T16:51:01.207Z,13.4
2023-04-11T16:56:53.078Z,13.1
2023-04-11T17:02:45.784Z,12.7
2023-04-11T17:08:39.331Z,12.4
2023-04-11T17:14:00.545Z,12.2
2023-04-11T17:19:37.284Z,11.9
2023-04-11T17:25:28.131Z,11.6
2023-04-11T17:31:21.491Z,11.4
2023-04-11T17:37:13.298Z,11.1
2023-04-11T17:43:15.724Z,10.9
2023-04-11T17:49:00.402Z,10.7
2023-04-11T17:54:48.604Z,10.6
2023-04-11T18:00:52.866Z,10.5
2023-04-11T18:06:52.060Z,10.4
2023-04-11T18:12:30.820Z,10.4
2023-04-11T18:18:07.784Z,10.3
2023-04-11T18:23:28.806Z,10.1
2023-04-11T18:29:05.266Z,10
2023-04-11T18:35:12.105Z,9.9
2023-04-11T18:41:07.663Z,9.8
2023-04-11T18:46:50.447Z,9.8
2023-04-11T18:52:33.299Z,9.8
2023-04-11T18:58:34.134Z,9.8
2023-04-11T19:04:30.169Z,9.7
2023-04-11T19:10:09.852Z,9.6
2023-04-11T19:15:48.138Z,9.5
2023-04-11T19:21:26.761Z,9.4
2023-04-11T19:27:04.595Z,9.3
2023-04-11T19:32:42.520Z,9.1
2023-04-11T19:38:20.345Z,9
2023-04-11T19:43:42.550Z,8.9
2023-04-11T19:49:21.379Z,8.8
2023-04-11T19:55:00.706Z,8.7
2023-04-11T20:00:38.967Z,8.6
2023-04-11T20:06:04.521Z,8.5
2023-04-11T20:11:44.237Z,8.4
2023-04-11T20:17:21.701Z,8.3
2023-04-11T20:22:43.563Z,8.2
2023-04-11T20:28:20.079Z,8.1
2023-04-11T20:33:57.397Z,8.1
2023-04-11T20:39:36.651Z,8
2023-04-11T20:45:13.127Z,8
2023-04-11T20:50:50.671Z,7.9
2023-04-11T20:56:26.859Z,7.9
2023-04-11T21:02:03.371Z,7.8
2023-04-11T21:07:56.916Z,7.8
2023-04-11T21:13:48.326Z,7.6
2023-04-11T21:19:39.457Z,7.6
2023-04-11T21:25:30.965Z,7.6
2023-04-11T21:31:07.741Z,7.4
2023-04-11T21:36:59.905Z,7.4
2023-04-11T21:42:51.747Z,7.3
2023-04-11T21:48:43.921Z,7.4
2023-04-11T21:54:35.484Z,7.4
2023-04-11T22:00:40.521Z,7.4
2023-04-11T22:06:46.390Z,7.4
2023-04-11T22:12:48.402Z,7.4
2023-04-11T22:18:40.995Z,7.3
2023-04-11T22:24:32.841Z,7.3
2023-04-11T22:30:24.182Z,7.3
2023-04-11T22:36:01.637Z,7.3
2023-04-11T22:41:52.772Z,7.4
2023-04-11T22:47:44.812Z,7.4
2023-04-11T22:53:37.042Z,7.4
2023-04-11T22:59:27.585Z,7.4
2023-04-11T23:05:19.468Z,7.4
2023-04-11T23:10:56.581Z,7.4
2023-04-11T23:16:48.440Z,7.4
2023-04-11T23:22:24.074Z,7.4
2023-04-11T23:28:15.663Z,7.4
2023-04-11T23:34:07.238Z,7.3
2023-04-11T23:39:43.397Z,7.3
2023-04-11T23:44:49.251Z,7.2
2023-04-11T23:50:09.835Z,7.1
2023-04-11T23:55:30.363Z,7.1
